logo
Search for airport 
image banner adimage banner adimage banner ad
image banner ad

CAL9 - Tahsis

Located in , Canada

ICAO - CAL9, IATA - ZTS

Data provided by Airmate  

General information

Coordinates: N49°55'24" W126°39'17"
Elevation is 14 feet MSL.
Magnetic variation is 17.8931° East
View others Airports in British Columbia

Operational data

Special qualification required
Current time UTC:
Current local time:
Weather at : - ( 0 km )
METAR: CYPH 171252Z AUTO 16018G24KT 3/4SM -RA BR OVC003 10/10 A2944 RMK PRESFR PCPN 1.0MM PAST HR SLP973
View NOTAMs / SUP AIP / TFR affecting this airport [VIEW]
Communications frequencies: [VIEW]

Runways:

RWY identifierQFULength (ft)Width (ft)SurfaceLDA (ft)
W00WATER

Airport contact information

Address: Canada

Satellite view of CAL9